sensor_id;sensor_type;location;lat;lon;timestamp;P1;durP1;ratioP1;P2;durP2;ratioP2
17173;SDS011;8702;48.130;-1.696;2022-08-19T00:00:37;3.03;;;1.37;;
17173;SDS011;8702;48.130;-1.696;2022-08-19T00:03:05;2.03;;;1.50;;
17173;SDS011;8702;48.130;-1.696;2022-08-19T00:05:32;2.13;;;1.53;;
17173;SDS011;8702;48.130;-1.696;2022-08-19T00:08:00;2.43;;;1.80;;
17173;SDS011;8702;48.130;-1.696;2022-08-19T00:10:27;1.97;;;1.60;;
17173;SDS011;8702;48.130;-1.696;2022-08-19T00:12:55;1.90;;;1.70;;
17173;SDS011;8702;48.130;-1.696;2022-08-19T00:15:22;3.13;;;1.57;;
17173;SDS011;8702;48.130;-1.696;2022-08-19T00:17:49;3.30;;;1.60;;
17173;SDS011;8702;48.130;-1.696;2022-08-19T00:20:19;2.43;;;1.63;;
17173;SDS011;8702;48.130;-1.696;2022-08-19T00:22:47;5.87;;;1.37;;
17173;SDS011;8702;48.130;-1.696;2022-08-19T00:25:14;4.90;;;1.70;;
17173;SDS011;8702;48.130;-1.696;2022-08-19T00:27:42;2.60;;;1.50;;
17173;SDS011;8702;48.130;-1.696;2022-08-19T00:30:11;2.23;;;1.40;;
17173;SDS011;8702;48.130;-1.696;2022-08-19T00:32:38;2.97;;;1.37;;
17173;SDS011;8702;48.130;-1.696;2022-08-19T00:35:06;1.73;;;1.23;;
17173;SDS011;8702;48.130;-1.696;2022-08-19T00:37:34;2.23;;;1.30;;
17173;SDS011;8702;48.130;-1.696;2022-08-19T00:40:02;1.60;;;1.50;;
17173;SDS011;8702;48.130;-1.696;2022-08-19T00:42:30;1.60;;;1.47;;
17173;SDS011;8702;48.130;-1.696;2022-08-19T00:44:58;1.43;;;1.20;;
17173;SDS011;8702;48.130;-1.696;2022-08-19T00:47:26;1.77;;;1.37;;
17173;SDS011;8702;48.130;-1.696;2022-08-19T00:49:54;2.50;;;1.30;;
17173;SDS011;8702;48.130;-1.696;2022-08-19T00:52:25;3.67;;;1.40;;
17173;SDS011;8702;48.130;-1.696;2022-08-19T00:54:55;3.20;;;1.30;;
17173;SDS011;8702;48.130;-1.696;2022-08-19T00:57:25;3.63;;;1.30;;
17173;SDS011;8702;48.130;-1.696;2022-08-19T00:59:56;1.50;;;1.40;;
17173;SDS011;8702;48.130;-1.696;2022-08-19T01:02:26;3.77;;;1.60;;
17173;SDS011;8702;48.130;-1.696;2022-08-19T01:04:54;1.67;;;1.20;;
17173;SDS011;8702;48.130;-1.696;2022-08-19T01:07:21;3.50;;;1.70;;
17173;SDS011;8702;48.130;-1.696;2022-08-19T01:09:48;3.07;;;1.60;;
17173;SDS011;8702;48.130;-1.696;2022-08-19T01:12:15;2.07;;;1.37;;
17173;SDS011;8702;48.130;-1.696;2022-08-19T01:14:43;2.40;;;1.50;;
17173;SDS011;8702;48.130;-1.696;2022-08-19T01:17:12;1.50;;;1.30;;
17173;SDS011;8702;48.130;-1.696;2022-08-19T01:19:41;1.83;;;1.50;;
17173;SDS011;8702;48.130;-1.696;2022-08-19T01:22:12;2.70;;;1.53;;
17173;SDS011;8702;48.130;-1.696;2022-08-19T01:24:45;5.00;;;1.70;;
17173;SDS011;8702;48.130;-1.696;2022-08-19T01:27:12;2.83;;;1.57;;
17173;SDS011;8702;48.130;-1.696;2022-08-19T01:29:40;4.90;;;1.70;;
17173;SDS011;8702;48.130;-1.696;2022-08-19T01:32:07;3.63;;;1.70;;
17173;SDS011;8702;48.130;-1.696;2022-08-19T01:34:37;2.27;;;1.97;;
17173;SDS011;8702;48.130;-1.696;2022-08-19T01:37:05;2.47;;;1.63;;
17173;SDS011;8702;48.130;-1.696;2022-08-19T01:39:36;3.60;;;1.80;;
17173;SDS011;8702;48.130;-1.696;2022-08-19T01:42:05;3.03;;;1.53;;
17173;SDS011;8702;48.130;-1.696;2022-08-19T01:44:36;2.37;;;1.50;;
17173;SDS011;8702;48.130;-1.696;2022-08-19T01:47:03;2.13;;;1.60;;
17173;SDS011;8702;48.130;-1.696;2022-08-19T01:49:31;3.50;;;2.07;;
17173;SDS011;8702;48.130;-1.696;2022-08-19T01:51:59;3.13;;;1.70;;
17173;SDS011;8702;48.130;-1.696;2022-08-19T01:54:26;2.53;;;1.63;;
17173;SDS011;8702;48.130;-1.696;2022-08-19T01:56:55;2.20;;;1.80;;
17173;SDS011;8702;48.130;-1.696;2022-08-19T01:59:26;2.00;;;1.80;;
17173;SDS011;8702;48.130;-1.696;2022-08-19T02:01:54;3.27;;;2.07;;
17173;SDS011;8702;48.130;-1.696;2022-08-19T02:04:21;3.93;;;2.10;;
17173;SDS011;8702;48.130;-1.696;2022-08-19T02:06:50;5.17;;;2.20;;
17173;SDS011;8702;48.130;-1.696;2022-08-19T02:09:17;3.83;;;2.27;;
17173;SDS011;8702;48.130;-1.696;2022-08-19T02:11:44;7.23;;;2.10;;
17173;SDS011;8702;48.130;-1.696;2022-08-19T02:14:11;2.90;;;2.00;;
17173;SDS011;8702;48.130;-1.696;2022-08-19T02:16:40;2.67;;;2.10;;
17173;SDS011;8702;48.130;-1.696;2022-08-19T02:19:07;3.97;;;2.10;;
17173;SDS011;8702;48.130;-1.696;2022-08-19T02:21:35;4.00;;;2.17;;
17173;SDS011;8702;48.130;-1.696;2022-08-19T02:24:03;4.50;;;2.47;;
17173;SDS011;8702;48.130;-1.696;2022-08-19T02:26:31;4.10;;;2.00;;
17173;SDS011;8702;48.130;-1.696;2022-08-19T02:28:58;2.53;;;1.83;;
17173;SDS011;8702;48.130;-1.696;2022-08-19T02:31:25;2.40;;;2.03;;
17173;SDS011;8702;48.130;-1.696;2022-08-19T02:33:54;2.80;;;2.10;;
17173;SDS011;8702;48.130;-1.696;2022-08-19T02:36:22;3.43;;;2.23;;
17173;SDS011;8702;48.130;-1.696;2022-08-19T02:38:50;3.67;;;2.20;;
17173;SDS011;8702;48.130;-1.696;2022-08-19T02:41:17;6.20;;;2.13;;
17173;SDS011;8702;48.130;-1.696;2022-08-19T02:43:45;3.07;;;1.90;;
17173;SDS011;8702;48.130;-1.696;2022-08-19T02:46:13;3.03;;;1.77;;
17173;SDS011;8702;48.130;-1.696;2022-08-19T02:48:45;2.90;;;2.10;;
17173;SDS011;8702;48.130;-1.696;2022-08-19T02:51:17;3.80;;;2.00;;
17173;SDS011;8702;48.130;-1.696;2022-08-19T02:53:45;3.30;;;1.90;;
17173;SDS011;8702;48.130;-1.696;2022-08-19T02:56:12;3.40;;;2.10;;
17173;SDS011;8702;48.130;-1.696;2022-08-19T02:58:39;4.70;;;1.93;;
17173;SDS011;8702;48.130;-1.696;2022-08-19T03:01:08;2.30;;;2.10;;
17173;SDS011;8702;48.130;-1.696;2022-08-19T03:03:37;2.90;;;2.00;;
17173;SDS011;8702;48.130;-1.696;2022-08-19T03:06:05;3.87;;;2.23;;
17173;SDS011;8702;48.130;-1.696;2022-08-19T03:08:35;4.43;;;2.10;;
17173;SDS011;8702;48.130;-1.696;2022-08-19T03:11:02;4.03;;;1.90;;
17173;SDS011;8702;48.130;-1.696;2022-08-19T03:13:30;2.63;;;1.90;;
17173;SDS011;8702;48.130;-1.696;2022-08-19T03:15:57;4.20;;;1.90;;
17173;SDS011;8702;48.130;-1.696;2022-08-19T03:18:24;2.60;;;1.90;;
17173;SDS011;8702;48.130;-1.696;2022-08-19T03:20:52;3.73;;;1.90;;
17173;SDS011;8702;48.130;-1.696;2022-08-19T03:23:19;2.00;;;1.80;;
17173;SDS011;8702;48.130;-1.696;2022-08-19T03:25:49;5.10;;;2.10;;
17173;SDS011;8702;48.130;-1.696;2022-08-19T03:28:19;2.47;;;1.90;;
17173;SDS011;8702;48.130;-1.696;2022-08-19T03:30:56;3.73;;;1.87;;
17173;SDS011;8702;48.130;-1.696;2022-08-19T03:33:25;2.60;;;2.07;;
17173;SDS011;8702;48.130;-1.696;2022-08-19T03:36:01;2.27;;;1.90;;
17173;SDS011;8702;48.130;-1.696;2022-08-19T03:38:30;2.00;;;1.80;;
17173;SDS011;8702;48.130;-1.696;2022-08-19T03:40:58;4.70;;;1.80;;
17173;SDS011;8702;48.130;-1.696;2022-08-19T03:43:31;2.20;;;1.83;;
17173;SDS011;8702;48.130;-1.696;2022-08-19T03:46:00;1.83;;;1.70;;
17173;SDS011;8702;48.130;-1.696;2022-08-19T03:48:29;2.00;;;1.80;;
17173;SDS011;8702;48.130;-1.696;2022-08-19T03:50:56;4.80;;;1.97;;
17173;SDS011;8702;48.130;-1.696;2022-08-19T03:53:25;2.87;;;1.80;;
17173;SDS011;8702;48.130;-1.696;2022-08-19T03:55:52;2.60;;;1.87;;
17173;SDS011;8702;48.130;-1.696;2022-08-19T03:58:21;2.23;;;1.93;;
17173;SDS011;8702;48.130;-1.696;2022-08-19T04:00:49;3.10;;;2.00;;
17173;SDS011;8702;48.130;-1.696;2022-08-19T04:03:16;3.20;;;2.40;;
17173;SDS011;8702;48.130;-1.696;2022-08-19T04:05:44;4.13;;;1.97;;
17173;SDS011;8702;48.130;-1.696;2022-08-19T04:08:13;2.23;;;2.03;;
17173;SDS011;8702;48.130;-1.696;2022-08-19T04:10:45;2.70;;;2.13;;
17173;SDS011;8702;48.130;-1.696;2022-08-19T04:13:13;2.33;;;2.10;;
17173;SDS011;8702;48.130;-1.696;2022-08-19T04:15:42;4.57;;;2.20;;
17173;SDS011;8702;48.130;-1.696;2022-08-19T04:18:11;3.27;;;1.70;;
17173;SDS011;8702;48.130;-1.696;2022-08-19T04:20:39;2.87;;;1.90;;
17173;SDS011;8702;48.130;-1.696;2022-08-19T04:23:07;2.57;;;2.27;;
17173;SDS011;8702;48.130;-1.696;2022-08-19T04:25:35;1.83;;;1.73;;
17173;SDS011;8702;48.130;-1.696;2022-08-19T04:28:03;2.63;;;2.10;;
17173;SDS011;8702;48.130;-1.696;2022-08-19T04:30:30;3.67;;;2.17;;
17173;SDS011;8702;48.130;-1.696;2022-08-19T04:33:04;5.13;;;2.50;;
17173;SDS011;8702;48.130;-1.696;2022-08-19T04:35:34;4.07;;;2.37;;
17173;SDS011;8702;48.130;-1.696;2022-08-19T04:38:02;2.40;;;2.20;;
17173;SDS011;8702;48.130;-1.696;2022-08-19T04:40:29;4.97;;;2.00;;
17173;SDS011;8702;48.130;-1.696;2022-08-19T04:43:13;2.90;;;1.77;;
17173;SDS011;8702;48.130;-1.696;2022-08-19T04:45:41;2.77;;;2.07;;
17173;SDS011;8702;48.130;-1.696;2022-08-19T04:48:09;2.33;;;1.83;;
17173;SDS011;8702;48.130;-1.696;2022-08-19T04:50:39;2.73;;;1.77;;
17173;SDS011;8702;48.130;-1.696;2022-08-19T04:53:07;2.27;;;1.90;;
17173;SDS011;8702;48.130;-1.696;2022-08-19T04:55:37;2.33;;;2.10;;
17173;SDS011;8702;48.130;-1.696;2022-08-19T04:58:05;2.20;;;1.80;;
17173;SDS011;8702;48.130;-1.696;2022-08-19T05:00:32;2.57;;;2.37;;
17173;SDS011;8702;48.130;-1.696;2022-08-19T05:02:59;3.43;;;2.40;;
17173;SDS011;8702;48.130;-1.696;2022-08-19T05:05:27;4.53;;;2.10;;
17173;SDS011;8702;48.130;-1.696;2022-08-19T05:07:56;3.10;;;2.50;;
17173;SDS011;8702;48.130;-1.696;2022-08-19T05:10:23;2.90;;;2.13;;
17173;SDS011;8702;48.130;-1.696;2022-08-19T05:12:50;3.20;;;2.40;;
17173;SDS011;8702;48.130;-1.696;2022-08-19T05:15:17;3.77;;;2.30;;
17173;SDS011;8702;48.130;-1.696;2022-08-19T05:17:45;3.57;;;2.63;;
17173;SDS011;8702;48.130;-1.696;2022-08-19T05:20:25;2.93;;;2.60;;
17173;SDS011;8702;48.130;-1.696;2022-08-19T05:23:12;2.80;;;2.50;;
17173;SDS011;8702;48.130;-1.696;2022-08-19T05:25:42;3.60;;;2.97;;
17173;SDS011;8702;48.130;-1.696;2022-08-19T05:28:09;2.90;;;2.60;;
17173;SDS011;8702;48.130;-1.696;2022-08-19T05:30:36;3.33;;;2.67;;
17173;SDS011;8702;48.130;-1.696;2022-08-19T05:33:05;3.57;;;2.80;;
17173;SDS011;8702;48.130;-1.696;2022-08-19T05:35:38;4.13;;;2.77;;
17173;SDS011;8702;48.130;-1.696;2022-08-19T05:38:06;3.83;;;2.93;;
17173;SDS011;8702;48.130;-1.696;2022-08-19T05:40:34;7.17;;;3.07;;
17173;SDS011;8702;48.130;-1.696;2022-08-19T05:43:02;4.40;;;2.80;;
17173;SDS011;8702;48.130;-1.696;2022-08-19T05:45:30;3.70;;;3.03;;
17173;SDS011;8702;48.130;-1.696;2022-08-19T05:47:57;3.73;;;2.80;;
17173;SDS011;8702;48.130;-1.696;2022-08-19T05:50:24;2.97;;;2.67;;
17173;SDS011;8702;48.130;-1.696;2022-08-19T05:52:53;3.50;;;2.90;;
17173;SDS011;8702;48.130;-1.696;2022-08-19T05:55:20;3.10;;;2.80;;
17173;SDS011;8702;48.130;-1.696;2022-08-19T05:57:47;3.43;;;2.97;;
17173;SDS011;8702;48.130;-1.696;2022-08-19T06:00:14;4.00;;;2.87;;
17173;SDS011;8702;48.130;-1.696;2022-08-19T06:02:42;3.37;;;3.07;;
17173;SDS011;8702;48.130;-1.696;2022-08-19T06:05:09;3.33;;;2.93;;
17173;SDS011;8702;48.130;-1.696;2022-08-19T06:07:37;3.67;;;2.83;;
17173;SDS011;8702;48.130;-1.696;2022-08-19T06:10:07;5.87;;;3.13;;
17173;SDS011;8702;48.130;-1.696;2022-08-19T06:12:36;3.17;;;2.83;;
17173;SDS011;8702;48.130;-1.696;2022-08-19T06:15:04;3.70;;;3.03;;
17173;SDS011;8702;48.130;-1.696;2022-08-19T06:17:32;3.73;;;3.03;;
17173;SDS011;8702;48.130;-1.696;2022-08-19T06:20:00;4.47;;;3.20;;
17173;SDS011;8702;48.130;-1.696;2022-08-19T06:22:28;4.13;;;2.57;;
17173;SDS011;8702;48.130;-1.696;2022-08-19T06:24:55;3.87;;;3.00;;
17173;SDS011;8702;48.130;-1.696;2022-08-19T06:27:23;3.43;;;2.77;;
17173;SDS011;8702;48.130;-1.696;2022-08-19T06:29:50;3.77;;;2.93;;
17173;SDS011;8702;48.130;-1.696;2022-08-19T06:32:18;5.17;;;2.87;;
17173;SDS011;8702;48.130;-1.696;2022-08-19T06:34:45;5.03;;;3.10;;
17173;SDS011;8702;48.130;-1.696;2022-08-19T06:37:13;3.97;;;2.73;;
17173;SDS011;8702;48.130;-1.696;2022-08-19T06:39:41;4.83;;;3.20;;
17173;SDS011;8702;48.130;-1.696;2022-08-19T06:42:10;4.37;;;2.80;;
17173;SDS011;8702;48.130;-1.696;2022-08-19T06:44:43;4.40;;;3.00;;
17173;SDS011;8702;48.130;-1.696;2022-08-19T06:47:13;3.63;;;2.90;;
17173;SDS011;8702;48.130;-1.696;2022-08-19T06:49:41;3.67;;;2.87;;
17173;SDS011;8702;48.130;-1.696;2022-08-19T06:52:09;3.17;;;2.63;;
17173;SDS011;8702;48.130;-1.696;2022-08-19T06:54:38;2.90;;;2.70;;
17173;SDS011;8702;48.130;-1.696;2022-08-19T06:57:06;3.60;;;2.73;;
17173;SDS011;8702;48.130;-1.696;2022-08-19T06:59:34;4.30;;;3.00;;
17173;SDS011;8702;48.130;-1.696;2022-08-19T07:02:04;4.30;;;3.00;;
17173;SDS011;8702;48.130;-1.696;2022-08-19T07:04:32;4.97;;;3.00;;
17173;SDS011;8702;48.130;-1.696;2022-08-19T07:07:05;3.80;;;3.20;;
17173;SDS011;8702;48.130;-1.696;2022-08-19T07:09:35;5.53;;;3.47;;
17173;SDS011;8702;48.130;-1.696;2022-08-19T07:12:03;5.37;;;3.10;;
17173;SDS011;8702;48.130;-1.696;2022-08-19T07:14:32;4.37;;;3.33;;
17173;SDS011;8702;48.130;-1.696;2022-08-19T07:17:04;6.03;;;3.47;;
17173;SDS011;8702;48.130;-1.696;2022-08-19T07:19:33;3.63;;;2.97;;
17173;SDS011;8702;48.130;-1.696;2022-08-19T07:22:01;3.97;;;3.40;;
17173;SDS011;8702;48.130;-1.696;2022-08-19T07:24:30;6.13;;;3.87;;
17173;SDS011;8702;48.130;-1.696;2022-08-19T07:26:58;4.50;;;3.50;;
17173;SDS011;8702;48.130;-1.696;2022-08-19T07:29:28;4.80;;;3.37;;
17173;SDS011;8702;48.130;-1.696;2022-08-19T07:31:58;5.70;;;3.60;;
17173;SDS011;8702;48.130;-1.696;2022-08-19T07:34:28;5.20;;;3.53;;
17173;SDS011;8702;48.130;-1.696;2022-08-19T07:36:59;6.03;;;3.10;;
17173;SDS011;8702;48.130;-1.696;2022-08-19T07:39:30;4.27;;;3.13;;
17173;SDS011;8702;48.130;-1.696;2022-08-19T07:42:00;5.83;;;3.10;;
17173;SDS011;8702;48.130;-1.696;2022-08-19T07:44:31;4.80;;;3.67;;
17173;SDS011;8702;48.130;-1.696;2022-08-19T07:46:59;6.37;;;3.50;;
17173;SDS011;8702;48.130;-1.696;2022-08-19T07:49:28;4.90;;;3.53;;
17173;SDS011;8702;48.130;-1.696;2022-08-19T07:51:56;3.97;;;3.13;;
17173;SDS011;8702;48.130;-1.696;2022-08-19T07:54:27;9.90;;;3.40;;
17173;SDS011;8702;48.130;-1.696;2022-08-19T07:56:55;9.07;;;3.60;;
17173;SDS011;8702;48.130;-1.696;2022-08-19T07:59:23;4.20;;;3.17;;
17173;SDS011;8702;48.130;-1.696;2022-08-19T08:01:50;4.60;;;3.40;;
17173;SDS011;8702;48.130;-1.696;2022-08-19T08:04:19;8.30;;;3.40;;
17173;SDS011;8702;48.130;-1.696;2022-08-19T08:07:06;5.83;;;3.43;;
17173;SDS011;8702;48.130;-1.696;2022-08-19T08:09:51;5.47;;;3.00;;
17173;SDS011;8702;48.130;-1.696;2022-08-19T08:12:20;6.07;;;3.30;;
17173;SDS011;8702;48.130;-1.696;2022-08-19T08:14:51;7.87;;;3.63;;
17173;SDS011;8702;48.130;-1.696;2022-08-19T08:17:21;5.03;;;3.23;;
17173;SDS011;8702;48.130;-1.696;2022-08-19T08:19:50;7.53;;;3.20;;
17173;SDS011;8702;48.130;-1.696;2022-08-19T08:22:19;5.40;;;3.10;;
17173;SDS011;8702;48.130;-1.696;2022-08-19T08:25:06;6.50;;;3.30;;
17173;SDS011;8702;48.130;-1.696;2022-08-19T08:27:36;4.67;;;3.10;;
17173;SDS011;8702;48.130;-1.696;2022-08-19T08:30:08;5.83;;;3.10;;
17173;SDS011;8702;48.130;-1.696;2022-08-19T08:32:36;7.17;;;2.93;;
17173;SDS011;8702;48.130;-1.696;2022-08-19T08:35:05;5.50;;;3.33;;
17173;SDS011;8702;48.130;-1.696;2022-08-19T08:37:34;5.93;;;2.97;;
17173;SDS011;8702;48.130;-1.696;2022-08-19T08:40:03;4.53;;;2.87;;
17173;SDS011;8702;48.130;-1.696;2022-08-19T08:42:34;4.67;;;2.83;;
17173;SDS011;8702;48.130;-1.696;2022-08-19T08:45:08;5.70;;;2.97;;
17173;SDS011;8702;48.130;-1.696;2022-08-19T08:47:41;5.17;;;2.67;;
17173;SDS011;8702;48.130;-1.696;2022-08-19T08:50:13;4.53;;;2.77;;
17173;SDS011;8702;48.130;-1.696;2022-08-19T08:52:46;7.27;;;2.83;;
17173;SDS011;8702;48.130;-1.696;2022-08-19T08:55:16;4.80;;;2.87;;
17173;SDS011;8702;48.130;-1.696;2022-08-19T08:57:50;7.00;;;3.10;;
17173;SDS011;8702;48.130;-1.696;2022-08-19T09:00:22;7.10;;;2.83;;
17173;SDS011;8702;48.130;-1.696;2022-08-19T09:02:51;4.23;;;2.80;;
17173;SDS011;8702;48.130;-1.696;2022-08-19T09:05:19;6.80;;;2.80;;
17173;SDS011;8702;48.130;-1.696;2022-08-19T09:07:49;6.47;;;2.63;;
17173;SDS011;8702;48.130;-1.696;2022-08-19T09:10:25;3.80;;;2.53;;
17173;SDS011;8702;48.130;-1.696;2022-08-19T09:13:00;5.27;;;2.80;;
17173;SDS011;8702;48.130;-1.696;2022-08-19T09:15:38;6.00;;;2.80;;
17173;SDS011;8702;48.130;-1.696;2022-08-19T09:18:09;4.37;;;2.50;;
17173;SDS011;8702;48.130;-1.696;2022-08-19T09:20:36;3.13;;;2.30;;
17173;SDS011;8702;48.130;-1.696;2022-08-19T09:23:05;5.60;;;2.87;;
17173;SDS011;8702;48.130;-1.696;2022-08-19T09:25:33;7.20;;;2.73;;
17173;SDS011;8702;48.130;-1.696;2022-08-19T09:28:00;4.23;;;2.50;;
17173;SDS011;8702;48.130;-1.696;2022-08-19T09:30:29;4.90;;;2.87;;
17173;SDS011;8702;48.130;-1.696;2022-08-19T09:32:57;7.20;;;2.70;;
17173;SDS011;8702;48.130;-1.696;2022-08-19T09:35:25;5.00;;;2.13;;
17173;SDS011;8702;48.130;-1.696;2022-08-19T09:37:54;8.17;;;2.70;;
17173;SDS011;8702;48.130;-1.696;2022-08-19T09:40:24;5.13;;;2.27;;
17173;SDS011;8702;48.130;-1.696;2022-08-19T09:42:52;4.33;;;2.10;;
17173;SDS011;8702;48.130;-1.696;2022-08-19T09:45:20;7.07;;;2.67;;
17173;SDS011;8702;48.130;-1.696;2022-08-19T09:47:48;4.73;;;2.50;;
17173;SDS011;8702;48.130;-1.696;2022-08-19T09:50:17;4.73;;;2.33;;
17173;SDS011;8702;48.130;-1.696;2022-08-19T09:52:45;5.80;;;2.40;;
17173;SDS011;8702;48.130;-1.696;2022-08-19T09:55:12;3.90;;;2.30;;
17173;SDS011;8702;48.130;-1.696;2022-08-19T09:57:42;5.37;;;2.73;;
17173;SDS011;8702;48.130;-1.696;2022-08-19T10:00:09;5.27;;;2.53;;
17173;SDS011;8702;48.130;-1.696;2022-08-19T10:02:37;4.07;;;2.50;;
17173;SDS011;8702;48.130;-1.696;2022-08-19T10:05:04;4.73;;;2.57;;
17173;SDS011;8702;48.130;-1.696;2022-08-19T10:07:49;5.10;;;2.33;;
17173;SDS011;8702;48.130;-1.696;2022-08-19T10:10:16;4.50;;;1.80;;
17173;SDS011;8702;48.130;-1.696;2022-08-19T10:12:45;5.50;;;2.37;;
17173;SDS011;8702;48.130;-1.696;2022-08-19T10:15:12;5.87;;;2.27;;
17173;SDS011;8702;48.130;-1.696;2022-08-19T10:17:39;3.70;;;2.10;;
17173;SDS011;8702;48.130;-1.696;2022-08-19T10:20:07;5.47;;;1.97;;
17173;SDS011;8702;48.130;-1.696;2022-08-19T10:22:34;4.47;;;1.90;;
17173;SDS011;8702;48.130;-1.696;2022-08-19T10:25:02;5.57;;;2.43;;
17173;SDS011;8702;48.130;-1.696;2022-08-19T10:27:31;4.10;;;2.07;;
17173;SDS011;8702;48.130;-1.696;2022-08-19T10:29:59;5.17;;;2.27;;
17173;SDS011;8702;48.130;-1.696;2022-08-19T10:32:26;4.00;;;2.23;;
17173;SDS011;8702;48.130;-1.696;2022-08-19T10:34:54;5.63;;;2.57;;
17173;SDS011;8702;48.130;-1.696;2022-08-19T10:37:22;3.33;;;1.83;;
17173;SDS011;8702;48.130;-1.696;2022-08-19T10:39:49;3.73;;;1.87;;
17173;SDS011;8702;48.130;-1.696;2022-08-19T10:42:16;7.17;;;2.20;;
17173;SDS011;8702;48.130;-1.696;2022-08-19T10:44:45;3.80;;;1.77;;
17173;SDS011;8702;48.130;-1.696;2022-08-19T10:47:14;7.80;;;2.27;;
17173;SDS011;8702;48.130;-1.696;2022-08-19T10:49:41;5.13;;;1.90;;
17173;SDS011;8702;48.130;-1.696;2022-08-19T10:52:26;4.33;;;2.00;;
17173;SDS011;8702;48.130;-1.696;2022-08-19T10:54:59;3.83;;;1.87;;
17173;SDS011;8702;48.130;-1.696;2022-08-19T10:57:43;2.70;;;1.40;;
17173;SDS011;8702;48.130;-1.696;2022-08-19T11:00:11;3.07;;;1.60;;
17173;SDS011;8702;48.130;-1.696;2022-08-19T11:02:40;5.97;;;2.30;;
17173;SDS011;8702;48.130;-1.696;2022-08-19T11:05:08;3.50;;;2.10;;
17173;SDS011;8702;48.130;-1.696;2022-08-19T11:07:36;3.17;;;2.13;;
17173;SDS011;8702;48.130;-1.696;2022-08-19T11:10:04;1.50;;;1.13;;
17173;SDS011;8702;48.130;-1.696;2022-08-19T11:12:32;4.53;;;1.43;;
17173;SDS011;8702;48.130;-1.696;2022-08-19T11:14:59;3.90;;;1.60;;
17173;SDS011;8702;48.130;-1.696;2022-08-19T11:17:26;2.50;;;1.30;;
17173;SDS011;8702;48.130;-1.696;2022-08-19T11:19:57;2.43;;;1.40;;
17173;SDS011;8702;48.130;-1.696;2022-08-19T11:22:28;3.10;;;1.33;;
17173;SDS011;8702;48.130;-1.696;2022-08-19T11:24:55;3.23;;;1.00;;
17173;SDS011;8702;48.130;-1.696;2022-08-19T11:27:22;2.23;;;1.40;;
17173;SDS011;8702;48.130;-1.696;2022-08-19T11:29:49;1.67;;;1.23;;
17173;SDS011;8702;48.130;-1.696;2022-08-19T11:32:17;3.13;;;1.43;;
17173;SDS011;8702;48.130;-1.696;2022-08-19T11:34:44;5.03;;;1.27;;
17173;SDS011;8702;48.130;-1.696;2022-08-19T11:37:13;2.63;;;1.10;;
17173;SDS011;8702;48.130;-1.696;2022-08-19T11:39:40;2.10;;;1.10;;
17173;SDS011;8702;48.130;-1.696;2022-08-19T11:42:07;1.90;;;1.20;;
17173;SDS011;8702;48.130;-1.696;2022-08-19T11:44:48;6.40;;;1.30;;
17173;SDS011;8702;48.130;-1.696;2022-08-19T11:47:15;2.03;;;1.00;;
17173;SDS011;8702;48.130;-1.696;2022-08-19T11:49:42;2.83;;;1.10;;
17173;SDS011;8702;48.130;-1.696;2022-08-19T11:52:09;2.73;;;1.17;;
17173;SDS011;8702;48.130;-1.696;2022-08-19T11:54:38;3.57;;;1.30;;
17173;SDS011;8702;48.130;-1.696;2022-08-19T11:57:05;2.33;;;1.03;;
17173;SDS011;8702;48.130;-1.696;2022-08-19T11:59:32;1.57;;;0.90;;
17173;SDS011;8702;48.130;-1.696;2022-08-19T12:01:59;1.83;;;0.90;;
17173;SDS011;8702;48.130;-1.696;2022-08-19T12:04:26;2.10;;;1.00;;
17173;SDS011;8702;48.130;-1.696;2022-08-19T12:06:53;1.07;;;0.90;;
17173;SDS011;8702;48.130;-1.696;2022-08-19T12:09:20;1.87;;;1.13;;
17173;SDS011;8702;48.130;-1.696;2022-08-19T12:11:48;3.13;;;1.20;;
17173;SDS011;8702;48.130;-1.696;2022-08-19T12:14:16;0.90;;;0.80;;
17173;SDS011;8702;48.130;-1.696;2022-08-19T12:16:44;2.47;;;0.90;;
17173;SDS011;8702;48.130;-1.696;2022-08-19T12:19:12;2.17;;;1.03;;
17173;SDS011;8702;48.130;-1.696;2022-08-19T12:21:39;1.63;;;1.00;;
17173;SDS011;8702;48.130;-1.696;2022-08-19T12:24:06;0.87;;;0.87;;
17173;SDS011;8702;48.130;-1.696;2022-08-19T12:26:35;1.97;;;1.17;;
17173;SDS011;8702;48.130;-1.696;2022-08-19T12:29:03;1.90;;;1.10;;
17173;SDS011;8702;48.130;-1.696;2022-08-19T12:31:30;2.63;;;1.20;;
17173;SDS011;8702;48.130;-1.696;2022-08-19T12:33:57;1.27;;;1.07;;
17173;SDS011;8702;48.130;-1.696;2022-08-19T12:36:26;3.53;;;0.80;;
17173;SDS011;8702;48.130;-1.696;2022-08-19T12:38:52;2.60;;;1.00;;
17173;SDS011;8702;48.130;-1.696;2022-08-19T12:41:19;3.17;;;0.90;;
17173;SDS011;8702;48.130;-1.696;2022-08-19T12:43:47;1.20;;;0.97;;
17173;SDS011;8702;48.130;-1.696;2022-08-19T12:46:17;2.00;;;0.90;;
17173;SDS011;8702;48.130;-1.696;2022-08-19T12:48:45;1.77;;;1.00;;
17173;SDS011;8702;48.130;-1.696;2022-08-19T12:51:13;1.60;;;0.93;;
17173;SDS011;8702;48.130;-1.696;2022-08-19T12:53:41;1.57;;;1.03;;
17173;SDS011;8702;48.130;-1.696;2022-08-19T12:56:09;3.10;;;1.00;;
17173;SDS011;8702;48.130;-1.696;2022-08-19T12:58:39;4.17;;;1.20;;
17173;SDS011;8702;48.130;-1.696;2022-08-19T13:01:08;2.37;;;1.10;;
17173;SDS011;8702;48.130;-1.696;2022-08-19T13:03:37;7.93;;;1.50;;
17173;SDS011;8702;48.130;-1.696;2022-08-19T13:06:05;2.37;;;1.53;;
17173;SDS011;8702;48.130;-1.696;2022-08-19T13:08:32;3.60;;;1.37;;
17173;SDS011;8702;48.130;-1.696;2022-08-19T13:11:06;2.37;;;1.50;;
17173;SDS011;8702;48.130;-1.696;2022-08-19T13:13:36;2.03;;;1.17;;
17173;SDS011;8702;48.130;-1.696;2022-08-19T13:16:05;1.33;;;0.97;;
17173;SDS011;8702;48.130;-1.696;2022-08-19T13:18:33;3.73;;;1.00;;
17173;SDS011;8702;48.130;-1.696;2022-08-19T13:21:02;3.63;;;1.07;;
17173;SDS011;8702;48.130;-1.696;2022-08-19T13:23:30;1.60;;;0.90;;
17173;SDS011;8702;48.130;-1.696;2022-08-19T13:25:58;1.00;;;0.90;;
17173;SDS011;8702;48.130;-1.696;2022-08-19T13:28:27;2.83;;;1.20;;
17173;SDS011;8702;48.130;-1.696;2022-08-19T13:31:14;2.23;;;1.07;;
17173;SDS011;8702;48.130;-1.696;2022-08-19T13:34:00;1.67;;;0.90;;
17173;SDS011;8702;48.130;-1.696;2022-08-19T13:36:28;2.97;;;1.13;;
17173;SDS011;8702;48.130;-1.696;2022-08-19T13:38:56;1.90;;;1.03;;
17173;SDS011;8702;48.130;-1.696;2022-08-19T13:41:23;3.30;;;1.33;;
17173;SDS011;8702;48.130;-1.696;2022-08-19T13:43:50;3.53;;;1.00;;
17173;SDS011;8702;48.130;-1.696;2022-08-19T13:46:17;2.73;;;0.50;;
17173;SDS011;8702;48.130;-1.696;2022-08-19T13:48:45;5.70;;;0.40;;
17173;SDS011;8702;48.130;-1.696;2022-08-19T13:51:13;0.53;;;0.30;;
17173;SDS011;8702;48.130;-1.696;2022-08-19T13:53:42;4.27;;;0.50;;
17173;SDS011;8702;48.130;-1.696;2022-08-19T13:56:11;2.93;;;0.40;;
17173;SDS011;8702;48.130;-1.696;2022-08-19T13:58:39;0.37;;;0.27;;
17173;SDS011;8702;48.130;-1.696;2022-08-19T14:01:07;0.20;;;0.20;;
17173;SDS011;8702;48.130;-1.696;2022-08-19T14:03:34;3.60;;;0.40;;
17173;SDS011;8702;48.130;-1.696;2022-08-19T14:06:01;1.10;;;0.30;;
17173;SDS011;8702;48.130;-1.696;2022-08-19T14:08:29;3.60;;;0.43;;
17173;SDS011;8702;48.130;-1.696;2022-08-19T14:10:58;0.47;;;0.13;;
17173;SDS011;8702;48.130;-1.696;2022-08-19T14:13:25;0.33;;;0.33;;
17173;SDS011;8702;48.130;-1.696;2022-08-19T14:15:52;2.43;;;0.50;;
17173;SDS011;8702;48.130;-1.696;2022-08-19T14:18:19;1.80;;;0.13;;
17173;SDS011;8702;48.130;-1.696;2022-08-19T14:20:46;0.20;;;0.20;;
17173;SDS011;8702;48.130;-1.696;2022-08-19T14:23:14;0.50;;;0.37;;
17173;SDS011;8702;48.130;-1.696;2022-08-19T14:25:41;0.33;;;0.23;;
17173;SDS011;8702;48.130;-1.696;2022-08-19T14:28:09;0.20;;;0.20;;
17173;SDS011;8702;48.130;-1.696;2022-08-19T14:30:36;0.33;;;0.30;;
17173;SDS011;8702;48.130;-1.696;2022-08-19T14:33:04;0.33;;;0.30;;
17173;SDS011;8702;48.130;-1.696;2022-08-19T14:35:33;0.40;;;0.40;;
17173;SDS011;8702;48.130;-1.696;2022-08-19T14:38:00;0.43;;;0.40;;
17173;SDS011;8702;48.130;-1.696;2022-08-19T14:40:28;0.53;;;0.43;;
17173;SDS011;8702;48.130;-1.696;2022-08-19T14:42:57;0.37;;;0.30;;
17173;SDS011;8702;48.130;-1.696;2022-08-19T14:45:30;1.03;;;0.57;;
17173;SDS011;8702;48.130;-1.696;2022-08-19T14:47:58;0.77;;;0.30;;
17173;SDS011;8702;48.130;-1.696;2022-08-19T14:50:25;0.50;;;0.50;;
17173;SDS011;8702;48.130;-1.696;2022-08-19T14:52:57;0.83;;;0.50;;
17173;SDS011;8702;48.130;-1.696;2022-08-19T14:55:25;0.60;;;0.60;;
17173;SDS011;8702;48.130;-1.696;2022-08-19T14:57:53;0.40;;;0.37;;